Time;durP1;ratioP1;P1;durP2;ratioP2;P2;SDS_P1;SDS_P2;PMS_P1;PMS_P2;Temp;Humidity;BMP_temperature;BMP_pressure;BME280_temperature;BME280_humidity;BME280_pressure;Samples;Min_cycle;Max_cycle;Signal;HPM_P1;HPM_P2
2022/05/23 00:00:39;;;;;;;3.53;2.00;;;;;;;8.34;73.55;100451.20;1759551;81;21008;-87
2022/05/23 00:03:26;;;;;;;4.37;2.13;;;;;;;8.36;73.64;100444.20;1760143;81;21291;-88
2022/05/23 00:06:03;;;;;;;3.10;2.30;;;;;;;8.35;73.64;100438.58;1758569;81;20928;-88
2022/05/23 00:08:53;;;;;;;3.83;2.20;;;;;;;8.32;73.64;100438.20;1759923;81;21032;-88
2022/05/23 00:11:30;;;;;;;4.63;2.37;;;;;;;8.29;73.58;100440.05;1760172;81;21029;-87
2022/05/23 00:14:13;;;;;;;3.77;2.77;;;;;;;8.25;73.67;100444.03;1759857;81;21044;-88
2022/05/23 00:16:56;;;;;;;5.00;2.50;;;;;;;8.22;73.64;100441.50;1759308;81;21526;-88
2022/05/23 00:19:48;;;;;;;4.90;2.60;;;;;;;8.18;73.72;100445.11;1749628;81;21585;-88
2022/05/23 00:22:19;;;;;;;3.30;2.40;;;;;;;8.14;73.92;100446.06;1728486;82;21033;-87
2022/05/23 00:25:07;;;;;;;3.55;2.58;;;;;;;8.15;74.14;100448.25;1728690;82;28106;-87
2022/05/23 00:28:04;;;;;;;3.27;2.50;;;;;;;8.15;74.30;100439.97;1739039;81;21103;-87
2022/05/23 00:36:47;;;;;;;3.50;2.70;;;;;;;8.05;74.21;100438.48;1738977;82;21099;-87
2022/05/23 00:39:37;;;;;;;3.73;2.60;;;;;;;8.03;74.25;100441.58;1737336;82;21502;-87
2022/05/23 00:45:32;;;;;;;4.27;2.60;;;;;;;7.99;74.10;100435.59;1740311;82;21001;-88
2022/05/23 00:48:09;;;;;;;3.80;2.53;;;;;;;7.91;74.07;100434.08;1740220;82;21044;-87
2022/05/23 00:51:01;;;;;;;4.55;2.90;;;;;;;7.91;74.50;100439.30;1740412;82;21051;-87
2022/05/23 00:54:00;;;;;;;3.93;2.50;;;;;;;7.87;74.17;100428.51;1739056;82;21039;-87
2022/05/23 00:56:40;;;;;;;3.00;2.10;;;;;;;7.80;74.17;100432.59;1740606;82;21132;-86
2022/05/23 01:02:11;;;;;;;3.47;2.10;;;;;;;7.68;74.09;100433.36;1716180;82;21028;-87
2022/05/23 01:04:47;;;;;;;4.75;2.20;;;;;;;7.60;74.19;100425.71;1740098;82;21103;-87
2022/05/23 01:07:17;;;;;;;3.83;2.33;;;;;;;7.58;74.46;100423.58;1739397;82;21370;-86
2022/05/23 01:10:02;;;;;;;2.50;2.10;;;;;;;7.54;74.33;100428.47;1735602;82;21032;-87
2022/05/23 01:12:38;;;;;;;;;;;;;;;7.50;74.40;100430.27;1742027;82;21305;-87
2022/05/23 01:15:47;;;;;;;4.03;2.47;;;;;;;7.48;74.87;100428.17;1740163;81;20203;-87
2022/05/23 01:18:27;;;;;;;11.50;3.47;;;;;;;7.47;74.71;100434.27;1735866;82;21711;-87
2022/05/23 01:21:04;;;;;;;3.27;2.33;;;;;;;7.45;74.99;100420.84;1739573;82;21032;-87
2022/05/23 01:23:54;;;;;;;3.73;2.77;;;;;;;7.50;75.21;100420.30;1740127;82;21522;-87
2022/05/23 01:26:34;;;;;;;2.98;2.40;;;;;;;7.49;74.90;100419.90;1735421;82;21005;-90
2022/05/23 01:29:17;;;;;;;3.40;2.30;;;;;;;7.43;74.76;100417.41;1710626;82;21316;-90
2022/05/23 01:31:59;;;;;;;4.03;2.27;;;;;;;7.40;74.96;100419.67;1730531;82;21009;-88
2022/05/23 01:34:44;;;;;;;3.67;2.33;;;;;;;7.41;75.15;100416.16;1726423;82;21025;-90
2022/05/23 01:39:59;;;;;;;2.10;1.90;;;;;;;7.37;75.05;100414.50;1720719;82;21147;-89
2022/05/23 01:42:51;;;;;;;3.60;2.63;;;;;;;7.32;74.99;100413.33;1728933;82;21041;-89
2022/05/23 01:45:39;;;;;;;3.40;2.30;;;;;;;7.31;75.18;100412.90;1730063;82;21012;-89
2022/05/23 01:48:35;;;;;;;2.63;2.30;;;;;;;7.26;75.09;100414.78;1728996;82;20949;-89
2022/05/23 01:51:01;;;;;;;4.10;2.70;;;;;;;7.29;75.37;100416.02;1704202;82;21040;-89
2022/05/23 01:53:45;;;;;;;3.07;2.23;;;;;;;7.28;75.61;100415.58;1729363;82;21530;-89
2022/05/23 01:56:27;;;;;;;4.13;3.00;;;;;;;7.24;75.07;100408.73;1728081;82;21467;-88
2022/05/23 02:02:09;;;;;;;3.33;2.77;;;;;;;7.24;75.53;100403.98;1725901;82;21040;-89
2022/05/23 02:04:54;;;;;;;2.90;2.50;;;;;;;7.20;75.41;100399.70;1729803;82;21080;-90
2022/05/23 02:07:27;;;;;;;3.77;2.67;;;;;;;7.16;75.44;100393.72;1727232;82;21064;-89
2022/05/23 02:10:15;;;;;;;2.93;2.50;;;;;;;7.11;75.17;100389.05;1727725;82;21036;-88
2022/05/23 02:13:00;;;;;;;3.50;2.45;;;;;;;7.04;75.17;100383.13;1729066;82;21048;-89
2022/05/23 02:15:43;;;;;;;3.00;2.37;;;;;;;6.98;75.15;100378.04;1729117;82;21570;-89
2022/05/23 02:18:55;;;;;;;3.73;2.73;;;;;;;6.96;75.15;100382.91;1726255;82;21413;-89
2022/05/23 02:21:33;;;;;;;2.80;2.30;;;;;;;6.90;75.25;100388.66;1728790;82;21060;-89
2022/05/23 02:24:24;;;;;;;4.17;2.60;;;;;;;6.89;75.57;100391.28;1727511;82;21082;-88
2022/05/23 02:27:12;;;;;;;3.60;2.57;;;;;;;6.84;75.33;100385.31;1723772;82;21358;-89
2022/05/23 02:29:57;;;;;;;3.80;2.65;;;;;;;6.86;75.74;100386.14;1730018;82;21066;-89
2022/05/23 02:32:46;;;;;;;5.33;2.70;;;;;;;6.84;75.64;100383.55;1729818;82;21061;-90
2022/05/23 02:35:20;;;;;;;4.93;2.80;;;;;;;6.77;75.62;100378.54;1722610;82;21028;-90
2022/05/23 02:37:55;;;;;;;4.60;3.00;;;;;;;6.79;75.88;100383.24;1729926;82;21060;-88
2022/05/23 02:40:45;;;;;;;3.53;3.13;;;;;;;6.78;75.98;100385.00;1723813;82;21063;-90
2022/05/23 02:43:18;;;;;;;3.30;2.70;;;;;;;6.82;76.12;100384.51;1718161;82;21020;-90
2022/05/23 02:46:07;;;;;;;3.70;3.10;;;;;;;6.78;75.95;100379.78;1729854;82;21048;-88
2022/05/23 02:51:28;;;;;;;4.57;2.53;;;;;;;6.72;75.95;100376.47;1699575;82;21067;-89
2022/05/23 02:54:07;;;;;;;4.00;2.93;;;;;;;6.68;75.88;100371.33;1727324;82;21051;-90
2022/05/23 02:57:02;;;;;;;4.43;3.00;;;;;;;6.64;75.98;100369.66;1686874;82;21021;-89
2022/05/23 02:59:49;;;;;;;3.20;2.90;;;;;;;6.63;75.86;100374.92;1728317;82;21520;-89
2022/05/23 03:05:29;;;;;;;3.73;3.10;;;;;;;6.61;76.39;100372.34;1729378;82;21049;-90
2022/05/23 03:08:15;;;;;;;3.73;2.90;;;;;;;6.59;76.21;100371.51;1729334;82;21028;-90
2022/05/23 03:11:11;;;;;;;4.07;3.07;;;;;;;6.59;76.31;100378.47;1729469;82;21052;-90
2022/05/23 03:13:55;;;;;;;3.47;3.17;;;;;;;6.60;76.36;100373.23;1729143;82;21514;-89
2022/05/23 03:16:39;;;;;;;4.03;3.10;;;;;;;6.62;76.66;100373.19;1729262;82;21139;-89
2022/05/23 03:19:24;;;;;;;3.40;3.00;;;;;;;6.63;76.57;100369.27;1726191;82;21044;-89
2022/05/23 03:28:22;;;;;;;3.17;2.87;;;;;;;6.62;76.69;100370.17;1726291;82;21028;-90
2022/05/23 03:31:03;;;;;;;5.03;3.03;;;;;;;6.63;76.82;100373.63;1721832;83;21159;-89
2022/05/23 03:33:39;;;;;;;3.40;3.10;;;;;;;6.63;76.63;100382.73;1721679;82;21339;-90
2022/05/23 03:36:20;;;;;;;4.58;3.70;;;;;;;6.58;76.50;100389.33;1723544;83;21112;-90
2022/05/23 03:39:05;;;;;;;5.07;3.70;;;;;;;6.55;76.65;100385.50;1722187;82;21038;-90
2022/05/23 03:42:12;;;;;;;3.77;3.33;;;;;;;6.57;76.83;100391.54;1724315;83;21025;-90
2022/05/23 03:44:53;;;;;;;4.67;4.07;;;;;;;6.58;76.95;100396.30;1721536;82;21526;-90
2022/05/23 03:47:26;;;;;;;3.97;3.50;;;;;;;6.60;77.44;100388.02;1724416;83;20982;-89
2022/05/23 03:50:00;;;;;;;4.03;3.60;;;;;;;6.66;77.47;100395.69;1723441;82;21060;-89
2022/05/23 03:53:00;;;;;;;4.07;3.67;;;;;;;6.69;77.60;100393.02;1722389;82;21016;-90
2022/05/23 03:55:46;;;;;;;4.28;3.67;;;;;;;6.72;77.75;100398.16;1704726;83;21534;-90
2022/05/23 04:01:39;;;;;;;3.70;3.40;;;;;;;6.81;78.13;100399.70;1724477;83;21076;-89
2022/05/23 04:04:23;;;;;;;4.00;3.60;;;;;;;6.89;78.28;100406.91;1723214;82;21280;-90
2022/05/23 04:06:55;;;;;;;3.80;3.50;;;;;;;6.94;78.35;100406.37;1727310;82;21438;-91
2022/05/23 04:09:23;;;;;;;4.47;3.30;;;;;;;7.02;78.38;100415.33;1725956;83;20997;-92
2022/05/23 04:12:03;;;;;;;3.60;3.30;;;;;;;7.06;78.68;100412.60;1706912;83;21147;-90
2022/05/23 04:14:38;;;;;;;3.80;3.43;;;;;;;7.15;78.88;100418.94;1726089;80;21501;-89
2022/05/23 04:17:07;;;;;;;4.67;4.20;;;;;;;7.24;78.99;100419.16;1739563;80;21438;-89
2022/05/23 04:19:36;;;;;;;4.90;4.28;;;;;;;7.32;79.30;100410.72;1728546;82;21967;-89
2022/05/23 04:22:06;;;;;;;3.93;3.53;;;;;;;7.45;79.51;100416.94;1723708;82;21045;-89
2022/05/23 04:24:39;;;;;;;4.20;3.80;;;;;;;7.52;79.54;100414.60;1729653;81;21497;-89
2022/05/23 04:27:24;;;;;;;3.77;3.47;;;;;;;7.58;79.42;100413.14;1761542;80;21734;-89
2022/05/23 04:29:48;;;;;;;5.17;3.93;;;;;;;7.60;79.34;100421.34;1732435;81;21136;-90
2022/05/23 04:35:23;;;;;;;4.70;4.30;;;;;;;7.72;79.61;100422.78;1713041;82;21065;-88
2022/05/23 04:37:58;;;;;;;5.60;4.97;;;;;;;7.80;79.65;100419.98;1702542;83;21001;-88
2022/05/23 04:40:35;;;;;;;5.70;5.07;;;;;;;7.88;79.79;100416.73;1703077;83;21044;-92
2022/05/23 04:43:08;;;;;;;6.27;5.67;;;;;;;7.92;79.72;100419.66;1760016;81;21491;-89
2022/05/23 04:45:41;;;;;;;6.60;5.90;;;;;;;7.99;79.90;100430.82;1758483;81;21912;-90
2022/05/23 04:54:30;;;;;;;7.07;6.00;;;;;;;8.36;80.46;100425.46;1735145;81;21044;-90
2022/05/23 04:57:06;;;;;;;6.77;5.80;;;;;;;8.48;80.59;100421.70;1738103;80;21005;-89
2022/05/23 04:59:36;;;;;;;7.17;6.33;;;;;;;8.57;80.61;100417.52;1724525;82;21058;-88
2022/05/23 05:02:09;;;;;;;7.43;6.40;;;;;;;8.66;80.47;100423.78;1725257;82;21144;-89
2022/05/23 05:04:36;;;;;;;6.50;5.90;;;;;;;8.70;80.30;100424.53;1784696;79;21092;-89
2022/05/23 05:07:15;;;;;;;7.83;6.67;;;;;;;8.74;80.56;100422.72;1755942;81;21037;-91
2022/05/23 05:09:43;;;;;;;7.83;6.63;;;;;;;8.83;80.90;100420.67;1723951;82;21002;-90
2022/05/23 05:12:21;;;;;;;8.03;7.03;;;;;;;8.97;81.24;100419.41;1734361;82;21052;-90
2022/05/23 05:15:00;;;;;;;9.50;6.87;;;;;;;9.09;81.36;100422.52;1707673;82;21108;-89
2022/05/23 05:17:31;;;;;;;9.70;7.57;;;;;;;9.20;81.45;100416.97;1766644;79;21126;-89
2022/05/23 05:20:02;;;;;;;9.40;7.60;;;;;;;9.33;81.57;100414.80;1781299;79;21044;-90
2022/05/23 05:22:39;;;;;;;8.37;7.23;;;;;;;9.43;81.62;100414.92;1739626;80;21061;-89
2022/05/23 05:25:31;;;;;;;8.07;7.07;;;;;;;9.55;81.66;100410.59;1698363;82;21103;-89
2022/05/23 05:28:13;;;;;;;8.27;7.17;;;;;;;9.67;81.69;100406.73;1723733;81;20985;-91
2022/05/23 05:31:17;;;;;;;7.97;6.50;;;;;;;9.82;81.58;100415.83;1708318;82;21121;-89
2022/05/23 05:33:47;;;;;;;9.07;6.27;;;;;;;9.93;81.59;100404.53;1736994;81;21059;-88
2022/05/23 05:36:25;;;;;;;8.73;6.20;;;;;;;10.11;81.71;100409.58;1734009;81;21545;-90
2022/05/23 05:39:06;;;;;;;8.87;6.13;;;;;;;10.20;81.35;100407.12;1736502;82;21088;-84
2022/05/23 05:41:43;;;;;;;8.03;6.53;;;;;;;10.31;81.24;100417.22;1729552;81;21056;-84
2022/05/23 05:44:23;;;;;;;8.50;6.50;;;;;;;10.39;81.13;100408.20;1701009;84;22072;-85
2022/05/23 05:46:53;;;;;;;8.37;5.93;;;;;;;10.51;81.27;100401.65;1673496;85;21583;-83
2022/05/23 05:49:27;;;;;;;8.77;6.00;;;;;;;10.65;81.33;100401.14;1681304;85;21067;-86
2022/05/23 05:52:01;;;;;;;7.67;5.77;;;;;;;10.82;81.41;100408.37;1738653;82;21028;-87
2022/05/23 05:54:35;;;;;;;8.57;5.60;;;;;;;10.92;81.06;100404.03;1737836;82;21044;-86
2022/05/23 05:57:06;;;;;;;9.73;5.37;;;;;;;11.04;81.02;100399.22;1739215;82;21136;-83
2022/05/23 05:59:34;;;;;;;7.70;5.17;;;;;;;11.17;81.11;100399.14;1703684;84;21052;-87
2022/05/23 06:02:07;;;;;;;7.72;5.20;;;;;;;11.30;81.05;100393.78;1673483;85;21006;-88
2022/05/23 06:04:36;;;;;;;7.40;4.37;;;;;;;11.47;80.98;100396.19;1683566;85;21009;-87
2022/05/23 06:13:23;;;;;;;4.33;3.72;;;;;;;11.89;80.18;100392.28;1669770;85;21057;-91
2022/05/23 06:16:14;;;;;;;5.83;4.10;;;;;;;12.06;80.10;100391.56;1681603;85;21060;-89
2022/05/23 06:18:55;;;;;;;5.80;3.62;;;;;;;12.22;79.91;100383.84;1676637;85;21053;-89
2022/05/23 06:21:29;;;;;;;4.28;3.50;;;;;;;12.36;79.73;100380.59;1665543;84;21471;-84
2022/05/23 06:23:57;;;;;;;5.85;3.65;;;;;;;12.52;79.63;100386.03;1695088;83;26134;-88
2022/05/23 06:26:44;;;;;;;5.28;3.70;;;;;;;12.66;79.40;100389.73;1707317;83;21013;-77
2022/05/23 06:29:31;;;;;;;4.25;3.45;;;;;;;12.82;79.19;100382.45;1750977;80;20997;-87
2022/05/23 06:32:04;;;;;;;5.78;3.47;;;;;;;12.93;78.80;100374.91;1776715;80;21433;-89
2022/05/23 06:34:34;;;;;;;6.12;3.70;;;;;;;13.05;78.47;100373.03;1768158;80;21016;-88
2022/05/23 06:37:02;;;;;;;4.28;2.95;;;;;;;13.14;78.02;100371.27;1767327;80;21494;-83
2022/05/23 06:39:34;;;;;;;4.60;2.72;;;;;;;13.24;77.40;100377.39;1776680;80;21000;-90
2022/05/23 06:42:12;;;;;;;5.17;2.90;;;;;;;13.33;77.42;100372.58;1775136;80;21008;-81
2022/05/23 06:44:53;;;;;;;4.22;2.95;;;;;;;13.51;77.08;100372.59;1774594;80;21016;-83
2022/05/23 06:47:39;;;;;;;6.15;2.60;;;;;;;13.66;76.62;100374.45;1778056;80;21051;-87
2022/05/23 06:50:24;;;;;;;3.70;2.67;;;;;;;13.79;76.28;100362.84;1778164;80;21106;-82
2022/05/23 06:53:32;;;;;;;3.58;2.65;;;;;;;13.91;75.85;100363.98;1756391;78;21095;-91
2022/05/23 06:56:05;;;;;;;5.05;2.62;;;;;;;14.00;75.79;100351.20;1797125;79;21043;-85
2022/05/23 06:58:36;;;;;;;3.45;2.37;;;;;;;14.17;75.45;100358.23;1808105;79;21052;-86
2022/05/23 07:01:08;;;;;;;6.03;3.45;;;;;;;14.25;74.62;100354.72;1793919;79;21013;-83
2022/05/23 07:03:58;;;;;;;5.83;2.58;;;;;;;14.34;74.53;100346.78;1718813;82;21943;-82
2022/05/23 07:12:28;;;;;;;4.87;2.72;;;;;;;14.64;73.13;100333.75;1705427;83;21092;-79
2022/05/23 07:14:57;;;;;;;4.50;3.50;;;;;;;14.68;73.07;100328.68;1789069;80;21045;-84
2022/05/23 07:17:26;;;;;;;6.73;3.03;;;;;;;14.81;72.98;100324.06;1790054;80;21044;-84
2022/05/23 07:20:05;;;;;;;7.12;3.70;;;;;;;14.94;72.88;100324.61;1704812;83;21084;-85
2022/05/23 07:22:34;;;;;;;4.80;2.87;;;;;;;15.06;72.45;100322.20;1789708;80;21092;-84
2022/05/23 07:25:03;;;;;;;4.20;3.30;;;;;;;15.15;72.27;100317.23;1707099;83;21040;-85
2022/05/23 07:27:31;;;;;;;6.35;3.65;;;;;;;15.28;72.32;100317.39;1789870;80;21009;-84
2022/05/23 07:29:59;;;;;;;5.17;3.08;;;;;;;15.40;71.96;100317.98;1714495;83;21105;-84
2022/05/23 07:32:29;;;;;;;3.33;2.22;;;;;;;15.50;71.39;100314.83;1798412;79;21032;-84
2022/05/23 07:34:57;;;;;;;5.33;2.80;;;;;;;15.60;71.31;100309.36;1798086;79;21088;-84
2022/05/23 07:37:27;;;;;;;4.33;2.47;;;;;;;15.68;70.61;100310.23;1798517;79;21078;-84
2022/05/23 07:39:56;;;;;;;2.97;2.10;;;;;;;15.78;70.32;100303.50;1798358;79;21571;-84
2022/05/23 07:42:40;;;;;;;4.47;2.42;;;;;;;15.88;70.03;100301.13;1796645;79;21119;-85
2022/05/23 07:45:09;;;;;;;4.47;2.40;;;;;;;16.02;69.60;100305.14;1717482;83;21061;-84
2022/05/23 07:47:38;;;;;;;5.13;2.30;;;;;;;16.07;68.71;100299.06;1798642;79;22111;-84
2022/05/23 07:50:19;;;;;;;4.03;2.80;;;;;;;16.08;68.16;100300.78;1717726;82;21523;-86
2022/05/23 08:00:31;;;;;;;3.60;2.10;;;;;;;16.16;68.07;100305.61;1813052;79;21013;-84
2022/05/23 08:00:47;;;;;;;3.33;1.98;;;;;;;16.26;66.31;100300.11;1802173;79;21000;-84
2022/05/23 08:03:18;;;;;;;3.42;2.00;;;;;;;16.26;66.13;100302.27;1807639;79;21047;-84
2022/05/23 08:05:50;;;;;;;5.15;1.70;;;;;;;16.33;65.40;100296.62;1807321;79;21023;-84
2022/05/23 08:08:18;;;;;;;4.15;2.08;;;;;;;16.37;64.96;100296.31;1812862;79;21072;-87
2022/05/23 08:10:49;;;;;;;4.55;2.02;;;;;;;16.37;64.96;100296.31;1779967;79;20948;-86
2022/05/23 08:13:23;;;;;;;2.85;1.90;;;;;;;16.42;64.83;100290.75;1806550;79;21517;-84
2022/05/23 08:15:51;;;;;;;5.12;1.57;;;;;;;16.51;64.61;100302.06;1812386;79;21514;-85
2022/05/23 08:18:19;;;;;;;2.25;1.27;;;;;;;16.56;63.91;100299.13;1812412;78;20988;-85
2022/05/23 08:20:49;;;;;;;3.77;1.30;;;;;;;16.57;63.51;100293.76;1812441;78;21229;-86
2022/05/23 08:23:17;;;;;;;3.62;1.37;;;;;;;16.69;63.52;100288.98;1774176;80;20981;-85
2022/05/23 08:25:46;;;;;;;2.12;1.40;;;;;;;16.85;63.52;100291.53;1746366;82;21095;-85
2022/05/23 08:28:13;;;;;;;2.70;1.25;;;;;;;17.17;62.51;100274.84;1813001;79;21036;-85
2022/05/23 08:30:41;;;;;;;2.15;1.07;;;;;;;17.17;62.51;100274.84;1795502;79;21040;-82
2022/05/23 08:33:12;;;;;;;2.22;1.00;;;;;;;17.30;62.29;100275.36;1739364;81;22217;-84
2022/05/23 08:35:39;;;;;;;1.95;1.25;;;;;;;17.49;62.18;100266.55;1769773;80;21495;-83
2022/05/23 08:38:06;;;;;;;2.45;1.20;;;;;;;17.67;61.61;100270.21;1769432;81;21041;-85
2022/05/23 08:41:17;;;;;;;3.95;1.62;;;;;;;17.78;61.02;100264.56;1726648;81;21036;-85
2022/05/23 08:44:49;;;;;;;3.00;1.00;;;;;;;17.87;60.17;100267.05;1769467;79;21083;-86
2022/05/23 08:47:44;;;;;;;2.85;1.52;;;;;;;17.84;59.52;100262.80;1755108;79;21229;-87
2022/05/23 08:50:43;;;;;;;1.95;1.30;;;;;;;18.05;59.88;100259.62;1764626;79;21047;-85
2022/05/23 08:53:30;;;;;;;2.87;1.40;;;;;;;18.22;59.58;100247.34;1755723;79;28036;-85
2022/05/23 08:56:26;;;;;;;2.20;1.42;;;;;;;18.35;58.53;100255.77;1700282;82;21095;-87
2022/05/23 08:59:02;;;;;;;1.95;1.35;;;;;;;18.41;58.52;100250.00;1695196;82;21130;-86
2022/05/23 09:01:52;;;;;;;1.67;1.32;;;;;;;18.60;58.66;100253.02;1694720;82;21110;-87
2022/05/23 09:05:01;;;;;;;3.65;1.65;;;;;;;18.76;58.27;100243.49;1702139;83;21417;-85
2022/05/23 09:07:33;;;;;;;2.15;1.17;;;;;;;18.92;57.88;100241.86;1677890;84;21562;-85
2022/05/23 09:10:05;;;;;;;2.75;1.60;;;;;;;19.04;56.89;100245.39;1678679;85;21068;-84
2022/05/23 09:12:32;;;;;;;2.80;1.20;;;;;;;19.06;56.48;100245.65;1674978;84;21350;-84
2022/05/23 09:14:59;;;;;;;2.47;1.20;;;;;;;19.21;56.43;100234.86;1672192;84;21097;-85
2022/05/23 09:17:32;;;;;;;3.12;1.20;;;;;;;19.31;56.09;100231.84;1675625;84;21025;-84
2022/05/23 09:20:16;;;;;;;2.87;1.70;;;;;;;19.41;55.58;100229.35;1680138;83;20996;-84
2022/05/23 09:22:53;;;;;;;1.80;1.12;;;;;;;19.50;55.10;100219.33;1694805;83;21696;-83
2022/05/23 09:25:25;;;;;;;2.72;1.20;;;;;;;19.59;54.77;100209.30;1693827;83;21034;-81
2022/05/23 09:28:20;;;;;;;4.15;1.20;;;;;;;19.75;54.67;100207.17;1712470;83;21072;-85
2022/05/23 09:30:55;;;;;;;2.52;1.22;;;;;;;19.82;54.02;100205.73;1712091;83;21689;-84
2022/05/23 09:33:23;;;;;;;1.85;1.20;;;;;;;19.93;53.89;100204.05;1711655;83;21029;-84
2022/05/23 09:36:12;;;;;;;2.33;1.10;;;;;;;20.11;53.95;100204.39;1712699;83;21138;-83
2022/05/23 09:38:59;;;;;;;4.03;1.10;;;;;;;20.18;53.07;100192.30;1712631;83;21068;-85
2022/05/23 09:50:11;;;;;;;2.27;1.30;;;;;;;20.13;51.85;100198.47;1712597;83;21084;-84
2022/05/23 09:52:50;;;;;;;2.77;1.50;;;;;;;20.28;52.29;100191.89;1712422;83;21056;-85
2022/05/23 09:55:34;;;;;;;2.37;1.22;;;;;;;20.37;51.60;100194.29;1684051;85;21105;-84
2022/05/23 09:58:07;;;;;;;5.65;1.15;;;;;;;20.24;50.96;100193.13;1683971;85;21057;-84
2022/05/23 10:00:41;;;;;;;1.32;1.05;;;;;;;20.37;50.87;100187.17;1683831;85;21674;-84
2022/05/23 10:03:19;;;;;;;2.12;1.20;;;;;;;20.52;50.58;100182.89;1681964;85;21072;-84
2022/05/23 10:05:50;;;;;;;1.90;1.30;;;;;;;20.55;49.94;100179.52;1683942;85;21056;-85
2022/05/23 10:08:41;;;;;;;1.57;1.10;;;;;;;20.69;49.85;100179.22;1683002;85;21301;-84
2022/05/23 10:11:32;;;;;;;1.45;0.93;;;;;;;20.78;49.49;100169.61;1775929;80;20931;-83
2022/05/23 10:14:10;;;;;;;3.12;1.10;;;;;;;21.01;49.46;100170.86;1780608;80;21044;-84
2022/05/23 10:16:55;;;;;;;3.00;1.00;;;;;;;21.28;48.95;100166.31;1750635;80;21021;-84
2022/05/23 10:19:34;;;;;;;2.05;1.00;;;;;;;21.54;48.38;100156.12;1780309;80;21383;-84
2022/05/23 10:22:10;;;;;;;;;;;;;;;21.74;47.56;100158.38;1783542;80;21876;-84
2022/05/23 10:24:40;;;;;;;3.05;1.25;;;;;;;;;;1780202;80;20172;-84
2022/05/23 10:27:16;;;;;;;;;;;;;;;22.14;46.85;100153.03;1783226;80;21257;-84
2022/05/23 10:29:59;;;;;;;3.22;0.90;;;;;;;22.33;45.83;100150.89;1776078;80;20137;-83
2022/05/23 10:32:41;;;;;;;2.00;0.90;;;;;;;22.56;46.51;100149.29;1762547;81;21518;-85
2022/05/23 10:35:34;;;;;;;1.60;0.90;;;;;;;22.96;46.14;100149.17;1761512;81;21122;-83
2022/05/23 10:44:14;;;;;;;2.33;0.98;;;;;;;23.44;43.80;100135.34;1762599;81;21092;-83
2022/05/23 10:46:44;;;;;;;4.22;0.90;;;;;;;23.52;43.38;100140.30;1762104;81;21576;-86
2022/05/23 10:49:23;;;;;;;1.82;1.07;;;;;;;23.75;43.02;100130.58;1762340;81;21279;-82
2022/05/23 10:52:04;;;;;;;2.15;0.82;;;;;;;23.87;42.37;100128.08;1761812;81;21021;-83
2022/05/23 10:55:13;;;;;;;1.80;0.85;;;;;;;23.99;42.50;100120.17;1762360;81;21518;-84
2022/05/23 10:58:10;;;;;;;4.92;0.80;;;;;;;24.21;42.00;100114.05;1762864;81;20985;-83
2022/05/23 11:00:55;;;;;;;1.25;0.90;;;;;;;24.31;41.84;100128.22;1740033;81;21667;-83
2022/05/23 11:03:36;;;;;;;1.67;0.90;;;;;;;24.37;41.18;100115.55;1762233;81;21949;-82
2022/05/23 11:06:32;;;;;;;2.35;0.70;;;;;;;24.57;41.06;100118.94;1762294;81;21021;-85
2022/05/23 11:09:23;;;;;;;1.12;0.62;;;;;;;24.70;40.61;100109.18;1761728;80;21570;-86
2022/05/23 11:12:37;;;;;;;1.82;0.62;;;;;;;24.70;40.35;100097.95;1762589;81;21072;-82
2022/05/23 11:15:43;;;;;;;1.57;1.00;;;;;;;24.76;40.38;100095.66;1762346;81;21001;-80
2022/05/23 11:18:42;;;;;;;2.67;0.98;;;;;;;24.68;39.79;100093.75;1761475;81;21103;-83
2022/05/23 11:21:46;;;;;;;;;;;;;;;24.68;39.57;100083.02;1764900;80;21016;-85
2022/05/23 11:24:21;;;;;;;0.82;0.72;;;;;;;24.75;38.62;100093.48;1762949;80;20149;-82
2022/05/23 11:35:33;;;;;;;1.82;0.82;;;;;;;24.88;38.68;100072.44;1723621;81;21466;-86
2022/05/23 11:38:01;;;;;;;1.30;0.80;;;;;;;24.97;38.42;100077.86;1752403;81;21110;-86
2022/05/23 11:40:37;;;;;;;1.55;0.90;;;;;;;25.06;38.24;100076.94;1752342;81;37507;-89
2022/05/23 11:43:15;;;;;;;1.20;0.80;;;;;;;25.09;37.83;100074.77;1746436;81;21486;-84
2022/05/23 11:45:59;;;;;;;1.17;0.70;;;;;;;25.05;37.93;100068.05;1753244;80;21190;-81
2022/05/23 11:48:41;;;;;;;3.50;1.00;;;;;;;25.02;37.33;100068.34;1760707;80;21052;-86
2022/05/23 11:51:38;;;;;;;1.65;1.00;;;;;;;24.95;36.61;100065.13;1736179;82;21052;-83
2022/05/23 11:54:32;;;;;;;2.25;0.90;;;;;;;24.78;36.34;100073.56;1735942;82;21028;-84
2022/05/23 11:57:08;;;;;;;2.90;0.85;;;;;;;24.61;36.47;100066.74;1733127;82;21052;-83
2022/05/23 11:59:41;;;;;;;1.27;0.93;;;;;;;24.61;36.49;100056.49;1673907;85;21868;-87
2022/05/23 12:02:13;;;;;;;1.95;0.80;;;;;;;24.58;36.17;100056.81;1742906;81;21022;-88
2022/05/23 12:04:56;;;;;;;2.22;0.90;;;;;;;24.56;35.99;100046.27;1765680;79;21036;-80
2022/05/23 12:07:45;;;;;;;1.55;0.70;;;;;;;24.55;35.93;100037.86;1755884;81;21041;-81
2022/05/23 12:10:27;;;;;;;2.55;0.98;;;;;;;24.58;35.90;100038.05;1801488;78;20997;-82
2022/05/23 12:13:31;;;;;;;2.12;0.90;;;;;;;24.45;35.62;100032.61;1806240;79;21207;-85
2022/05/23 12:16:26;;;;;;;2.20;0.80;;;;;;;24.41;35.80;100022.32;1809636;78;21546;-81
2022/05/23 12:18:52;;;;;;;0.88;0.60;;;;;;;24.44;35.74;100019.36;1801779;79;21012;-81
2022/05/23 12:21:43;;;;;;;3.42;0.70;;;;;;;24.40;35.52;100019.31;1810439;78;21100;-87
2022/05/23 12:24:30;;;;;;;1.82;0.72;;;;;;;24.34;35.41;100014.58;1805008;79;21091;-81
2022/05/23 12:27:02;;;;;;;0.93;0.70;;;;;;;24.28;35.07;100010.69;1798036;78;21916;-88
2022/05/23 12:29:36;;;;;;;3.70;0.98;;;;;;;24.33;35.42;100008.86;1793145;78;21548;-83
2022/05/23 12:32:24;;;;;;;3.05;1.02;;;;;;;24.33;35.20;100004.38;1795160;78;20997;-84
2022/05/23 12:34:54;;;;;;;0.95;0.75;;;;;;;24.29;35.24;100004.32;1801390;79;20981;-81
2022/05/23 12:37:39;;;;;;;3.05;1.00;;;;;;;24.28;35.06;99998.64;1787160;78;21079;-83
2022/05/23 12:40:31;;;;;;;1.72;0.90;;;;;;;24.23;34.95;99987.04;1801931;79;21141;-82
2022/05/23 12:43:23;;;;;;;4.03;0.93;;;;;;;24.18;34.84;99980.47;1780109;79;21048;-81
2022/05/23 12:46:45;;;;;;;1.50;0.78;;;;;;;24.15;34.92;99962.87;1747653;79;21008;-81
2022/05/23 12:52:58;;;;;;;6.92;1.20;;;;;;;24.08;35.34;99967.66;1773223;79;21334;-83
2022/05/23 12:56:13;;;;;;;3.42;1.00;;;;;;;23.98;34.85;99955.70;1796432;79;21103;-89
2022/05/23 13:03:26;;;;;;;1.20;0.70;;;;;;;23.77;35.07;99948.81;1795935;79;21202;-83
2022/05/23 13:06:01;;;;;;;1.82;0.82;;;;;;;23.73;34.79;99944.77;1791759;79;20981;-82
2022/05/23 13:08:52;;;;;;;2.05;0.80;;;;;;;23.73;34.41;99948.78;1790757;79;21195;-88
2022/05/23 13:11:25;;;;;;;1.92;0.80;;;;;;;23.71;34.21;99949.42;1664467;82;21287;-82
2022/05/23 13:13:54;;;;;;;1.02;0.90;;;;;;;23.71;34.70;99937.89;1740162;81;21024;-82
2022/05/23 13:16:31;;;;;;;1.05;0.80;;;;;;;23.76;34.89;99937.77;1738865;80;28102;-82
2022/05/23 13:22:12;;;;;;;1.37;0.60;;;;;;;23.80;34.30;99937.80;1752126;80;21036;-83
2022/05/23 13:24:54;;;;;;;1.67;0.70;;;;;;;23.75;34.13;99929.41;1752954;80;21116;-83
2022/05/23 13:27:38;;;;;;;1.87;0.57;;;;;;;23.80;34.00;99927.09;1762090;79;21144;-82
2022/05/23 13:30:30;;;;;;;2.80;0.80;;;;;;;23.77;34.09;99929.24;1756104;80;20985;-81
2022/05/23 13:33:31;;;;;;;2.47;0.70;;;;;;;23.74;34.00;99924.20;1761042;80;21656;-83
2022/05/23 13:35:58;;;;;;;1.62;0.62;;;;;;;23.71;34.08;99928.02;1747294;80;21044;-82
2022/05/23 13:38:30;;;;;;;2.15;0.70;;;;;;;23.59;34.20;99922.03;1755156;79;21912;-82
2022/05/23 13:41:03;;;;;;;1.57;0.72;;;;;;;23.50;34.47;99928.30;1763113;79;21060;-87
2022/05/23 13:43:46;;;;;;;1.50;0.80;;;;;;;23.53;34.69;99915.13;1763226;80;21060;-87
2022/05/23 13:46:18;;;;;;;1.87;0.75;;;;;;;23.62;34.77;99912.03;1769232;79;21044;-83
2022/05/23 13:49:07;;;;;;;1.07;0.55;;;;;;;23.70;34.42;99910.27;1802123;79;21855;-82
2022/05/23 13:51:44;;;;;;;2.35;0.60;;;;;;;23.69;34.06;99911.74;1780652;79;21184;-83
2022/05/23 13:54:30;;;;;;;2.67;0.80;;;;;;;23.70;33.83;99906.25;1780561;80;21027;-83
2022/05/23 13:57:09;;;;;;;2.98;0.62;;;;;;;23.77;33.81;99907.84;1780716;80;21000;-82
2022/05/23 13:59:44;;;;;;;2.42;0.88;;;;;;;23.83;33.70;99903.20;1780524;80;21529;-83
2022/05/23 14:02:16;;;;;;;1.02;0.60;;;;;;;23.80;33.58;99896.82;1778305;80;21043;-89
2022/05/23 14:04:44;;;;;;;2.25;1.00;;;;;;;23.83;33.75;99897.84;1779494;80;21201;-87
2022/05/23 14:07:15;;;;;;;0.82;0.70;;;;;;;23.83;34.08;99897.84;1780472;80;21012;-85